Time;durP1;ratioP1;P1;durP2;ratioP2;P2;SDS_P1;SDS_P2;PMS_P1;PMS_P2;Temp;Humidity;BMP_temperature;BMP_pressure;BME280_temperature;BME280_humidity;BME280_pressure;Samples;Min_cycle;Max_cycle;Signal;HPM_P1;HPM_P2
2023/04/03 00:00:32;;;;;;;4.03;2.00;;;3.20;99.90;;;;;;5075169;28;20430;-62
2023/04/03 00:02:59;;;;;;;2.35;1.80;;;3.20;99.90;;;;;;5092490;28;20130;-63
2023/04/03 00:05:26;;;;;;;2.47;1.90;;;3.20;99.90;;;;;;5074617;28;20123;-62
2023/04/03 00:07:52;;;;;;;2.53;2.05;;;3.20;99.90;;;;;;5092431;28;20117;-62
2023/04/03 00:10:19;;;;;;;3.33;1.75;;;3.10;99.90;;;;;;5091922;28;20085;-63
2023/04/03 00:12:46;;;;;;;4.20;2.00;;;3.10;99.90;;;;;;5074430;28;20059;-63
2023/04/03 00:15:13;;;;;;;3.97;2.20;;;3.20;99.90;;;;;;5074649;28;20048;-63
2023/04/03 00:17:39;;;;;;;2.47;1.92;;;3.10;99.90;;;;;;5092354;28;20059;-63
2023/04/03 00:20:06;;;;;;;3.47;1.88;;;3.10;99.90;;;;;;5074522;28;20055;-63
2023/04/03 00:22:32;;;;;;;3.20;1.92;;;3.00;99.90;;;;;;5057668;28;20067;-61
2023/04/03 00:24:59;;;;;;;3.65;2.25;;;3.00;99.90;;;;;;5092245;28;20060;-63
2023/04/03 00:27:25;;;;;;;4.03;1.58;;;3.00;99.90;;;;;;5074133;28;20311;-62
2023/04/03 00:29:52;;;;;;;3.90;1.73;;;3.00;99.90;;;;;;5092504;28;20411;-62
2023/04/03 00:32:18;;;;;;;2.80;1.90;;;2.90;99.90;;;;;;5091985;28;20043;-62
2023/04/03 00:34:45;;;;;;;3.13;1.60;;;3.00;99.90;;;;;;5074652;28;20408;-62
2023/04/03 00:37:11;;;;;;;3.65;1.80;;;2.90;99.90;;;;;;5091914;28;20127;-63
2023/04/03 00:39:37;;;;;;;3.95;2.08;;;2.90;99.90;;;;;;5091943;28;20083;-62
2023/04/03 00:42:04;;;;;;;2.78;1.70;;;2.80;99.90;;;;;;5070880;28;20064;-63
2023/04/03 00:44:33;;;;;;;3.40;1.90;;;2.80;99.90;;;;;;5054032;28;20080;-62
2023/04/03 00:47:00;;;;;;;2.95;1.63;;;2.80;99.90;;;;;;5053842;28;20067;-63
2023/04/03 00:49:28;;;;;;;3.22;1.63;;;2.80;99.90;;;;;;5053494;28;20468;-64
2023/04/03 00:51:56;;;;;;;3.95;2.03;;;2.80;99.90;;;;;;5059080;28;20463;-62
2023/04/03 00:54:26;;;;;;;4.13;2.88;;;2.80;99.90;;;;;;5074296;28;20128;-63
2023/04/03 00:56:57;;;;;;;3.58;2.00;;;2.80;99.90;;;;;;5073816;28;20052;-63
2023/04/03 00:59:30;;;;;;;4.28;2.00;;;2.70;99.90;;;;;;5074011;28;20044;-63
2023/04/03 01:01:57;;;;;;;4.38;2.50;;;2.70;99.90;;;;;;5091676;28;20048;-62
2023/04/03 01:04:38;;;;;;;4.55;2.08;;;2.70;99.90;;;;;;5074197;28;20123;-62
2023/04/03 01:07:15;;;;;;;3.08;2.10;;;2.60;99.90;;;;;;5073749;28;20059;-62
2023/04/03 01:09:43;;;;;;;3.90;2.15;;;2.60;99.90;;;;;;5074562;28;20468;-63
2023/04/03 01:12:21;;;;;;;3.58;1.83;;;2.60;99.90;;;;;;5073633;28;20048;-62
2023/04/03 01:14:56;;;;;;;5.47;2.50;;;2.50;99.90;;;;;;5074049;28;20054;-63
2023/04/03 01:17:32;;;;;;;4.18;1.80;;;2.50;99.90;;;;;;5091510;28;20083;-62
2023/04/03 01:20:10;;;;;;;3.47;2.33;;;2.50;99.90;;;;;;5078039;28;20150;-63
2023/04/03 01:23:06;;;;;;;4.05;2.13;;;2.50;99.90;;;;;;5077777;28;20087;-62
2023/04/03 01:25:33;;;;;;;4.65;1.95;;;2.50;99.90;;;;;;5057714;28;20087;-62
2023/04/03 01:28:00;;;;;;;4.20;2.13;;;2.40;99.90;;;;;;5075510;28;20055;-62
2023/04/03 01:30:31;;;;;;;2.50;1.80;;;2.40;99.90;;;;;;5057937;28;20106;-62
2023/04/03 01:32:58;;;;;;;3.25;1.63;;;2.40;99.90;;;;;;5071172;28;20422;-62
2023/04/03 01:35:24;;;;;;;5.05;2.22;;;2.30;99.90;;;;;;5078054;28;20052;-62
2023/04/03 01:37:51;;;;;;;2.60;1.83;;;2.30;99.90;;;;;;5076914;28;20065;-63
2023/04/03 01:40:18;;;;;;;2.13;1.70;;;2.30;99.90;;;;;;5077757;28;20047;-63
2023/04/03 01:42:45;;;;;;;3.17;1.65;;;2.30;99.90;;;;;;5077311;28;20383;-63
2023/04/03 01:45:11;;;;;;;3.42;2.53;;;2.30;99.90;;;;;;5095790;28;20105;-63
2023/04/03 01:47:37;;;;;;;3.45;1.75;;;2.20;99.90;;;;;;5060381;28;20417;-62
2023/04/03 01:50:04;;;;;;;5.03;1.98;;;2.20;99.90;;;;;;5095617;28;20639;-62
2023/04/03 01:52:30;;;;;;;2.65;1.98;;;2.20;99.90;;;;;;5095245;28;20123;-63
2023/04/03 01:54:57;;;;;;;4.00;2.25;;;2.20;99.90;;;;;;5095454;28;20097;-62
2023/04/03 01:57:23;;;;;;;2.97;1.65;;;2.10;99.90;;;;;;5060282;28;20054;-62
2023/04/03 01:59:49;;;;;;;3.05;2.10;;;2.10;99.90;;;;;;5095279;28;20076;-63
2023/04/03 02:02:16;;;;;;;4.40;2.30;;;2.10;99.90;;;;;;5076528;28;20079;-63
2023/04/03 02:04:42;;;;;;;2.95;2.35;;;2.10;99.90;;;;;;5077958;28;20098;-63
2023/04/03 02:07:09;;;;;;;4.28;2.40;;;2.00;99.90;;;;;;5095102;28;20058;-63
2023/04/03 02:09:35;;;;;;;3.92;2.20;;;2.00;99.90;;;;;;5076934;28;20490;-62
2023/04/03 02:12:01;;;;;;;4.32;2.35;;;2.00;99.90;;;;;;5076820;28;20091;-62
2023/04/03 02:14:28;;;;;;;2.72;1.65;;;2.00;99.90;;;;;;5076962;28;20055;-63
2023/04/03 02:16:54;;;;;;;5.25;2.40;;;1.90;99.90;;;;;;5076930;28;20063;-63
2023/04/03 02:19:21;;;;;;;4.22;2.42;;;2.00;99.90;;;;;;5076467;28;20044;-62
2023/04/03 02:21:47;;;;;;;5.28;2.05;;;1.90;99.90;;;;;;5076344;28;20052;-62
2023/04/03 02:24:13;;;;;;;5.13;1.85;;;1.80;99.90;;;;;;5077279;28;20066;-63
2023/04/03 02:26:39;;;;;;;4.15;2.00;;;1.80;99.90;;;;;;5094545;28;20069;-63
2023/04/03 02:29:06;;;;;;;3.33;2.17;;;1.80;99.90;;;;;;5076263;28;20052;-63
2023/04/03 02:31:32;;;;;;;5.20;2.20;;;1.80;99.90;;;;;;5076335;28;20450;-63
2023/04/03 02:33:58;;;;;;;6.03;2.22;;;1.80;99.90;;;;;;5094774;28;20044;-63
2023/04/03 02:36:24;;;;;;;5.00;1.75;;;1.80;99.90;;;;;;5062017;28;20052;-62
2023/04/03 02:38:50;;;;;;;3.70;2.30;;;1.70;99.90;;;;;;5055979;28;20091;-62
2023/04/03 02:41:17;;;;;;;3.42;2.30;;;1.70;99.90;;;;;;5056286;28;20084;-63
2023/04/03 02:43:50;;;;;;;5.07;2.22;;;1.70;99.90;;;;;;5075460;28;20132;-63
2023/04/03 02:46:16;;;;;;;5.03;2.00;;;1.70;99.90;;;;;;5094315;28;20048;-63
2023/04/03 02:48:43;;;;;;;3.70;2.22;;;1.70;99.90;;;;;;5076338;28;20372;-63
2023/04/03 02:51:09;;;;;;;4.57;2.53;;;1.70;99.90;;;;;;5076403;28;20079;-63
2023/04/03 02:53:42;;;;;;;4.07;2.38;;;1.70;99.90;;;;;;5086932;28;20048;-62
2023/04/03 02:56:15;;;;;;;4.68;2.47;;;1.70;99.90;;;;;;5076358;28;20147;-63
2023/04/03 02:58:41;;;;;;;4.60;2.67;;;1.70;99.90;;;;;;5075942;28;20063;-62
2023/04/03 03:01:08;;;;;;;3.30;3.00;;;1.60;99.90;;;;;;5076334;28;20325;-63
2023/04/03 03:03:34;;;;;;;4.15;2.20;;;1.50;99.90;;;;;;5076103;28;20517;-63
2023/04/03 03:06:12;;;;;;;4.50;2.72;;;1.50;99.90;;;;;;5076112;28;20044;-63
2023/04/03 03:08:40;;;;;;;4.32;2.10;;;1.50;99.90;;;;;;5093761;28;20305;-63
2023/04/03 03:11:06;;;;;;;5.07;2.42;;;1.60;99.90;;;;;;5076134;28;20052;-63
2023/04/03 03:13:36;;;;;;;5.80;2.20;;;1.50;99.90;;;;;;5086441;28;20414;-63
2023/04/03 03:16:03;;;;;;;4.22;2.60;;;1.50;99.90;;;;;;5075627;28;20048;-63
2023/04/03 03:18:30;;;;;;;5.40;2.22;;;1.50;99.90;;;;;;5075869;28;20471;-63
2023/04/03 03:20:58;;;;;;;3.47;2.60;;;1.50;99.90;;;;;;5093585;28;20090;-63
2023/04/03 03:23:26;;;;;;;3.10;2.00;;;1.50;99.90;;;;;;5075722;28;20383;-63
2023/04/03 03:25:58;;;;;;;3.72;2.28;;;1.50;99.90;;;;;;5075139;28;20133;-63
2023/04/03 03:28:24;;;;;;;;;;;1.50;99.90;;;;;;5093582;28;20380;-62
2023/04/03 03:30:51;;;;;;;4.80;2.58;;;1.40;99.90;;;;;;5075322;28;19920;-62
2023/04/03 03:33:18;;;;;;;3.38;2.03;;;1.50;99.90;;;;;;5086168;28;20112;-63
2023/04/03 03:35:45;;;;;;;3.88;2.40;;;1.50;99.90;;;;;;5093466;28;20117;-62
2023/04/03 03:38:12;;;;;;;6.13;3.05;;;1.50;99.90;;;;;;5075253;28;20044;-63
2023/04/03 03:40:38;;;;;;;4.88;2.60;;;1.40;99.90;;;;;;5092645;28;20106;-62
2023/04/03 03:43:05;;;;;;;5.13;2.35;;;1.40;99.90;;;;;;5075155;28;20368;-62
2023/04/03 03:45:31;;;;;;;4.03;2.40;;;1.40;99.90;;;;;;5075232;28;20064;-63
2023/04/03 03:47:58;;;;;;;5.43;2.55;;;1.30;99.90;;;;;;5074501;28;20054;-62
2023/04/03 03:50:24;;;;;;;4.07;2.33;;;1.30;99.90;;;;;;5075098;28;20052;-62
2023/04/03 03:52:50;;;;;;;5.88;3.05;;;1.30;99.90;;;;;;5074768;28;20110;-63
2023/04/03 03:55:17;;;;;;;6.72;3.05;;;1.30;99.90;;;;;;5075325;28;20105;-62
2023/04/03 03:57:43;;;;;;;4.45;2.90;;;1.20;99.90;;;;;;5074599;28;20080;-62
2023/04/03 04:00:10;;;;;;;3.72;2.30;;;1.20;99.90;;;;;;5075346;28;20464;-63
2023/04/03 04:02:49;;;;;;;4.43;2.88;;;1.20;99.90;;;;;;5085892;28;20156;-63
2023/04/03 04:05:22;;;;;;;4.97;2.40;;;1.20;99.90;;;;;;5074672;28;20455;-63
2023/04/03 04:07:48;;;;;;;5.05;2.85;;;1.10;99.90;;;;;;5074247;28;20591;-62
2023/04/03 04:10:15;;;;;;;5.43;2.97;;;1.10;99.90;;;;;;5074785;28;20225;-62
2023/04/03 04:12:41;;;;;;;5.95;2.70;;;1.10;99.90;;;;;;5092316;28;20424;-63
2023/04/03 04:15:09;;;;;;;4.28;3.42;;;1.10;99.90;;;;;;5074644;28;20060;-63
2023/04/03 04:17:35;;;;;;;5.40;2.67;;;1.00;99.90;;;;;;5074782;28;20476;-62
2023/04/03 04:20:09;;;;;;;4.85;3.05;;;1.00;99.90;;;;;;5058210;28;20052;-63
2023/04/03 04:22:37;;;;;;;5.35;3.28;;;1.00;99.90;;;;;;5073932;28;20048;-62
2023/04/03 04:25:04;;;;;;;5.88;3.10;;;1.00;99.90;;;;;;5074445;28;20055;-64
2023/04/03 04:27:30;;;;;;;4.13;2.60;;;1.00;99.90;;;;;;5073962;28;20048;-63
2023/04/03 04:30:05;;;;;;;4.03;3.45;;;0.90;99.90;;;;;;5075747;28;20050;-63
2023/04/03 04:32:31;;;;;;;3.83;2.50;;;0.90;99.90;;;;;;5057504;28;20067;-62
2023/04/03 04:34:58;;;;;;;4.53;2.50;;;0.90;99.90;;;;;;5057968;28;20412;-63
2023/04/03 04:37:27;;;;;;;4.50;3.42;;;0.90;99.90;;;;;;5073915;28;20060;-63
2023/04/03 04:39:53;;;;;;;7.47;2.75;;;0.80;99.90;;;;;;5057790;28;20398;-62
2023/04/03 04:42:19;;;;;;;3.72;2.80;;;0.80;99.90;;;;;;5057288;28;20471;-63
2023/04/03 04:44:45;;;;;;;3.80;2.47;;;0.80;99.90;;;;;;5074491;28;20340;-63
2023/04/03 04:47:17;;;;;;;;;;;0.70;99.90;;;;;;5074265;28;20087;-63
2023/04/03 04:49:56;;;;;;;5.65;2.53;;;0.70;99.90;;;;;;5091887;28;19967;-63
2023/04/03 04:52:23;;;;;;;5.72;3.13;;;0.70;99.90;;;;;;5073254;28;20040;-63
2023/04/03 04:54:49;;;;;;;6.15;3.10;;;0.60;99.90;;;;;;5073723;28;20052;-62
2023/04/03 04:57:17;;;;;;;3.78;3.30;;;0.60;99.90;;;;;;5073666;28;20310;-62
2023/04/03 04:59:43;;;;;;;5.13;2.55;;;0.60;99.90;;;;;;5091458;28;20362;-63
2023/04/03 05:02:09;;;;;;;6.25;3.00;;;0.50;99.90;;;;;;5069804;28;20043;-62
2023/04/03 05:04:36;;;;;;;5.05;2.97;;;0.60;99.90;;;;;;5073239;28;20101;-62
2023/04/03 05:07:02;;;;;;;4.40;2.95;;;0.60;99.90;;;;;;5072421;28;20044;-63
2023/04/03 05:09:28;;;;;;;5.70;2.88;;;0.50;99.90;;;;;;5072492;28;20068;-63
2023/04/03 05:11:56;;;;;;;3.80;2.85;;;0.50;99.90;;;;;;5069689;28;20501;-63
2023/04/03 05:14:22;;;;;;;6.10;2.47;;;0.40;99.90;;;;;;5083191;28;20457;-62
2023/04/03 05:16:52;;;;;;;4.25;2.80;;;0.40;99.90;;;;;;5073646;28;20424;-61
2023/04/03 05:19:21;;;;;;;3.53;2.90;;;0.40;99.90;;;;;;5057392;28;20109;-62
2023/04/03 05:21:47;;;;;;;5.80;4.00;;;0.50;99.90;;;;;;5071743;28;20059;-62
2023/04/03 05:24:14;;;;;;;4.65;3.28;;;0.50;99.90;;;;;;5089873;28;20482;-63
2023/04/03 05:26:41;;;;;;;7.90;3.13;;;0.50;99.90;;;;;;5073489;28;20455;-63
2023/04/03 05:29:08;;;;;;;5.97;3.20;;;0.50;99.90;;;;;;5073736;28;20054;-63
2023/04/03 05:31:35;;;;;;;5.97;3.10;;;0.50;99.90;;;;;;5073536;28;20456;-63
2023/04/03 05:34:02;;;;;;;5.35;3.30;;;0.50;99.90;;;;;;5074203;28;20054;-64
2023/04/03 05:36:28;;;;;;;7.20;3.58;;;0.60;99.90;;;;;;5073998;28;20056;-62
2023/04/03 05:38:56;;;;;;;5.93;2.63;;;0.50;99.90;;;;;;5072920;28;20055;-62
2023/04/03 05:41:23;;;;;;;4.60;2.75;;;0.50;99.90;;;;;;5073189;28;20159;-61
2023/04/03 05:43:49;;;;;;;7.25;3.08;;;0.60;99.90;;;;;;5073174;28;20052;-61
2023/04/03 05:46:18;;;;;;;4.55;2.63;;;0.60;99.90;;;;;;5090654;28;20058;-62
2023/04/03 05:48:44;;;;;;;4.57;3.10;;;0.60;99.90;;;;;;5091427;28;20101;-62
2023/04/03 05:51:16;;;;;;;6.10;3.00;;;1.10;99.90;;;;;;5091319;28;20464;-62
2023/04/03 05:53:45;;;;;;;6.95;2.97;;;2.10;99.90;;;;;;5091348;28;20374;-63
2023/04/03 05:56:11;;;;;;;3.67;2.78;;;2.90;99.90;;;;;;5091435;28;20048;-62
2023/04/03 05:58:37;;;;;;;4.88;2.90;;;3.70;99.90;;;;;;5090750;28;20052;-62
2023/04/03 06:01:05;;;;;;;4.07;2.42;;;4.40;99.90;;;;;;5090288;28;20076;-62
2023/04/03 06:03:31;;;;;;;7.97;3.65;;;4.70;99.90;;;;;;5091158;28;20079;-62
2023/04/03 06:06:05;;;;;;;4.15;2.55;;;5.10;99.90;;;;;;5095098;28;20478;-62
2023/04/03 06:08:43;;;;;;;6.78;2.33;;;5.50;99.90;;;;;;5095258;28;20052;-63
2023/04/03 06:11:10;;;;;;;3.63;2.67;;;5.90;99.90;;;;;;5094907;28;20048;-63
2023/04/03 06:13:38;;;;;;;5.25;2.70;;;5.90;99.90;;;;;;5094900;28;20062;-61
2023/04/03 06:16:05;;;;;;;4.78;2.33;;;6.20;99.90;;;;;;5076924;28;20048;-61
2023/04/03 06:18:31;;;;;;;5.35;3.45;;;6.60;99.90;;;;;;5094859;28;20067;-61
2023/04/03 06:20:58;;;;;;;3.58;2.50;;;6.40;99.90;;;;;;5094655;28;20451;-62
2023/04/03 06:23:25;;;;;;;4.93;2.50;;;6.40;99.90;;;;;;5076810;28;20154;-62
2023/04/03 06:25:51;;;;;;;5.20;2.67;;;6.60;99.90;;;;;;5076534;28;20101;-63
2023/04/03 06:28:19;;;;;;;4.25;3.08;;;6.70;99.90;;;;;;5076198;28;20076;-61
2023/04/03 06:30:46;;;;;;;4.55;2.25;;;6.80;99.90;;;;;;5093568;28;20491;-63
2023/04/03 06:33:12;;;;;;;6.28;2.47;;;6.70;99.90;;;;;;5094462;28;20087;-62
2023/04/03 06:35:38;;;;;;;5.20;2.70;;;6.70;99.90;;;;;;5095112;28;20494;-62
2023/04/03 06:38:09;;;;;;;7.15;2.47;;;6.70;99.90;;;;;;5095074;28;20206;-61
2023/04/03 06:40:35;;;;;;;4.68;2.53;;;6.70;99.90;;;;;;5094799;28;20086;-62
2023/04/03 06:43:01;;;;;;;5.45;2.40;;;6.80;99.90;;;;;;5094529;28;20131;-63
2023/04/03 06:45:29;;;;;;;5.95;2.80;;;6.70;99.90;;;;;;5095047;28;20073;-62
2023/04/03 06:47:55;;;;;;;5.63;2.65;;;6.80;99.90;;;;;;5094313;28;20090;-62
2023/04/03 06:50:22;;;;;;;5.40;2.38;;;6.90;99.90;;;;;;5094360;28;20044;-62
2023/04/03 06:52:48;;;;;;;5.97;2.65;;;6.90;99.90;;;;;;5076421;28;20503;-62
2023/04/03 06:55:14;;;;;;;7.00;2.33;;;6.90;99.90;;;;;;5094898;28;20059;-61
2023/04/03 06:57:42;;;;;;;6.35;2.63;;;6.90;99.90;;;;;;5094844;28;20078;-61
2023/04/03 07:00:11;;;;;;;3.95;2.50;;;7.00;99.90;;;;;;5094434;28;20048;-64
2023/04/03 07:02:38;;;;;;;5.70;2.88;;;7.00;99.90;;;;;;5094775;28;20047;-62
2023/04/03 07:05:05;;;;;;;5.15;2.63;;;6.80;99.90;;;;;;5076679;28;20060;-63
2023/04/03 07:07:33;;;;;;;3.83;2.70;;;6.40;99.90;;;;;;5094747;28;20043;-62
2023/04/03 07:10:00;;;;;;;4.22;2.38;;;6.10;99.90;;;;;;5094123;28;20055;-62
2023/04/03 07:12:27;;;;;;;5.22;2.50;;;5.90;99.90;;;;;;5094346;28;20180;-63
2023/04/03 07:14:53;;;;;;;5.90;1.98;;;5.60;99.90;;;;;;5093429;28;20048;-63
2023/04/03 07:17:19;;;;;;;4.70;1.95;;;5.40;99.90;;;;;;5093757;28;20464;-62
2023/04/03 07:19:46;;;;;;;4.93;2.33;;;5.20;99.90;;;;;;5093733;28;20056;-63
2023/04/03 07:22:15;;;;;;;5.63;2.80;;;5.10;99.90;;;;;;5094127;28;20086;-63
2023/04/03 07:24:43;;;;;;;5.13;2.22;;;5.00;99.90;;;;;;5094201;28;20117;-62
2023/04/03 07:27:10;;;;;;;3.78;2.63;;;5.00;99.90;;;;;;5093548;28;20044;-61
2023/04/03 07:29:36;;;;;;;5.28;2.55;;;5.10;99.90;;;;;;5093249;28;20437;-62
2023/04/03 07:32:03;;;;;;;4.43;2.17;;;5.10;99.90;;;;;;5093743;28;20091;-62
2023/04/03 07:34:30;;;;;;;5.60;1.92;;;5.20;99.90;;;;;;5094023;28;20430;-61
2023/04/03 07:36:58;;;;;;;3.53;2.42;;;5.20;99.90;;;;;;5085963;28;20044;-61
2023/04/03 07:39:25;;;;;;;5.95;2.72;;;5.20;99.90;;;;;;5092748;28;20055;-62
2023/04/03 07:41:51;;;;;;;4.88;2.10;;;5.40;99.90;;;;;;5093379;28;20108;-61
2023/04/03 07:44:18;;;;;;;3.22;2.20;;;5.50;99.90;;;;;;5093769;28;20056;-62
2023/04/03 07:46:44;;;;;;;5.47;2.30;;;5.50;99.90;;;;;;5093537;28;20123;-62
2023/04/03 07:49:11;;;;;;;4.45;1.45;;;5.40;99.90;;;;;;5093353;28;20382;-61
2023/04/03 07:51:37;;;;;;;3.97;2.10;;;5.60;99.90;;;;;;5081200;28;20084;-61
2023/04/03 07:54:04;;;;;;;3.92;1.58;;;5.70;99.90;;;;;;5074677;28;20376;-61
2023/04/03 07:56:30;;;;;;;4.22;2.17;;;5.80;99.90;;;;;;5093524;28;20511;-62
2023/04/03 07:58:57;;;;;;;3.85;2.03;;;5.90;99.90;;;;;;5093365;28;20070;-62
2023/04/03 08:01:33;;;;;;;3.78;2.08;;;6.00;99.90;;;;;;5093405;28;20087;-61
2023/04/03 08:04:00;;;;;;;3.55;2.20;;;6.10;99.90;;;;;;5093147;28;20044;-62
2023/04/03 08:06:26;;;;;;;4.60;2.10;;;6.20;99.90;;;;;;5093009;28;20494;-62
2023/04/03 08:08:52;;;;;;;3.85;2.17;;;6.10;99.90;;;;;;5093113;28;20064;-62
2023/04/03 08:11:53;;;;;;;3.90;2.03;;;6.10;99.90;;;;;;5093335;28;20043;-61
2023/04/03 08:14:20;;;;;;;5.45;2.08;;;6.20;99.90;;;;;;5076987;28;20055;-61
2023/04/03 08:16:51;;;;;;;5.68;1.92;;;6.30;99.90;;;;;;5075358;28;20071;-61
2023/04/03 08:19:17;;;;;;;6.13;2.00;;;6.40;99.90;;;;;;5072564;28;20072;-61
2023/04/03 08:21:45;;;;;;;4.50;2.10;;;6.20;99.90;;;;;;5072836;28;20108;-61
2023/04/03 08:24:18;;;;;;;4.10;1.88;;;6.30;99.90;;;;;;5093175;28;20043;-62
2023/04/03 08:26:45;;;;;;;3.05;1.73;;;6.40;99.90;;;;;;5091495;28;20087;-61
2023/04/03 08:29:18;;;;;;;3.35;1.85;;;6.40;99.90;;;;;;5092861;28;20044;-62
2023/04/03 08:31:44;;;;;;;3.35;2.03;;;6.60;99.90;;;;;;5092706;28;20044;-61
2023/04/03 08:34:17;;;;;;;4.43;1.90;;;6.60;99.90;;;;;;5075297;28;20086;-61
2023/04/03 08:36:43;;;;;;;4.07;1.75;;;6.80;99.90;;;;;;5092979;28;20128;-62
2023/04/03 08:39:18;;;;;;;4.47;1.80;;;6.70;99.90;;;;;;5092601;28;20079;-62
2023/04/03 08:41:48;;;;;;;4.70;1.70;;;6.80;99.90;;;;;;5092829;28;20109;-61
2023/04/03 08:44:42;;;;;;;3.65;1.75;;;6.90;99.90;;;;;;5092357;28;20091;-62
2023/04/03 08:47:14;;;;;;;2.92;1.95;;;6.90;99.90;;;;;;5092857;28;20039;-61
2023/04/03 08:50:02;;;;;;;2.35;1.27;;;7.00;99.80;;;;;;5092330;28;20422;-61
2023/04/03 08:52:41;;;;;;;2.80;1.48;;;7.10;98.90;;;;;;5092587;28;20048;-61
2023/04/03 08:55:16;;;;;;;3.08;1.40;;;7.10;99.80;;;;;;5092119;28;20048;-61
2023/04/03 08:57:45;;;;;;;2.92;1.60;;;7.00;99.40;;;;;;5092688;28;20460;-61
2023/04/03 09:00:20;;;;;;;3.97;1.52;;;7.20;99.80;;;;;;5080965;28;20384;-62
2023/04/03 09:02:53;;;;;;;3.20;1.42;;;7.20;99.60;;;;;;5062811;28;20083;-62
2023/04/03 09:05:51;;;;;;;3.15;1.58;;;7.30;99.90;;;;;;5092698;28;20051;-61
2023/04/03 09:08:54;;;;;;;2.83;1.50;;;7.30;98.80;;;;;;5061083;28;20131;-60
2023/04/03 09:11:28;;;;;;;3.05;1.73;;;7.40;98.80;;;;;;5092839;28;20087;-60
2023/04/03 09:14:07;;;;;;;4.38;1.50;;;7.40;99.10;;;;;;5074395;28;20058;-61
2023/04/03 09:16:51;;;;;;;1.77;1.08;;;7.50;99.00;;;;;;5092523;28;20110;-61
2023/04/03 09:19:32;;;;;;;2.97;1.70;;;7.50;96.20;;;;;;5092272;28;20349;-60
2023/04/03 09:22:03;;;;;;;2.78;1.88;;;7.50;96.20;;;;;;5092320;28;20048;-60
2023/04/03 09:24:32;;;;;;;3.03;1.50;;;7.50;96.20;;;;;;5092540;28;20178;-60
2023/04/03 09:27:07;;;;;;;3.13;1.60;;;7.50;96.40;;;;;;5091731;28;20056;-60
2023/04/03 09:29:40;;;;;;;3.33;2.03;;;7.60;96.70;;;;;;5091471;28;20403;-61
2023/04/03 09:32:36;;;;;;;3.72;1.58;;;7.70;96.50;;;;;;5092104;28;20442;-61
2023/04/03 09:35:21;;;;;;;;;;;7.90;97.20;;;;;;5091039;28;20099;-61
2023/04/03 09:37:51;;;;;;;3.00;1.48;;;8.10;97.10;;;;;;5080322;28;19955;-60
2023/04/03 09:40:28;;;;;;;2.45;1.40;;;7.90;93.20;;;;;;5095295;28;20052;-61
2023/04/03 09:43:06;;;;;;;3.17;1.67;;;8.10;94.90;;;;;;5096241;28;20059;-61
2023/04/03 09:45:34;;;;;;;2.20;1.50;;;8.00;95.20;;;;;;5096355;28;20145;-61
2023/04/03 09:48:28;;;;;;;2.20;1.42;;;8.20;93.90;;;;;;5096205;28;20117;-61
2023/04/03 09:51:01;;;;;;;2.63;1.10;;;8.20;93.20;;;;;;5092266;28;20379;-61
2023/04/03 09:53:32;;;;;;;2.15;1.27;;;8.20;93.40;;;;;;5095935;28;20087;-62
2023/04/03 09:56:04;;;;;;;2.03;1.40;;;8.20;93.70;;;;;;5096602;28;20388;-60
2023/04/03 09:58:38;;;;;;;2.72;1.50;;;8.20;93.50;;;;;;5095822;28;20056;-62
2023/04/03 10:01:05;;;;;;;2.40;1.40;;;8.20;93.70;;;;;;5096102;28;20044;-60
2023/04/03 10:03:35;;;;;;;2.60;1.40;;;8.30;93.90;;;;;;5095839;28;20068;-60
2023/04/03 10:06:03;;;;;;;4.53;1.30;;;8.40;94.40;;;;;;5095868;28;20058;-61
2023/04/03 10:08:34;;;;;;;2.08;1.23;;;8.60;92.20;;;;;;5095224;28;20101;-62
2023/04/03 10:11:11;;;;;;;2.03;0.98;;;8.60;90.10;;;;;;5096014;28;20080;-60
2023/04/03 10:14:10;;;;;;;3.35;1.48;;;8.50;90.30;;;;;;5095340;28;20105;-61
2023/04/03 10:17:06;;;;;;;2.47;1.38;;;8.60;89.90;;;;;;5070217;28;20103;-61
2023/04/03 10:19:36;;;;;;;2.88;1.25;;;8.60;89.50;;;;;;5074263;28;20055;-60
2023/04/03 10:22:40;;;;;;;1.40;0.82;;;8.60;91.20;;;;;;5076865;28;20045;-61
2023/04/03 10:25:16;;;;;;;1.40;0.95;;;8.80;89.70;;;;;;5094937;28;20073;-61
2023/04/03 10:27:49;;;;;;;1.55;1.00;;;8.70;90.20;;;;;;5075232;28;20383;-61
2023/04/03 10:30:24;;;;;;;2.47;1.05;;;8.70;89.40;;;;;;5074266;28;20467;-60
2023/04/03 10:32:59;;;;;;;3.42;1.52;;;8.70;90.00;;;;;;5074176;28;20045;-60
2023/04/03 10:35:32;;;;;;;2.22;1.23;;;9.00;90.30;;;;;;5074903;28;20080;-61
2023/04/03 10:38:20;;;;;;;4.82;1.15;;;9.00;88.00;;;;;;5074895;28;20099;-61
2023/04/03 10:41:16;;;;;;;2.50;1.27;;;8.90;87.90;;;;;;5074440;28;20063;-61
2023/04/03 10:44:04;;;;;;;1.38;0.93;;;9.10;90.20;;;;;;5074596;28;20091;-62
2023/04/03 10:47:18;;;;;;;5.13;1.40;;;9.10;90.70;;;;;;5063985;28;20080;-61
2023/04/03 10:49:56;;;;;;;2.55;1.30;;;9.30;89.30;;;;;;5057914;28;20057;-61
2023/04/03 10:52:27;;;;;;;2.30;1.13;;;9.20;89.80;;;;;;5074311;28;20460;-60
2023/04/03 10:54:53;;;;;;;2.10;1.13;;;9.30;90.10;;;;;;5074680;28;20396;-62
2023/04/03 10:57:21;;;;;;;2.65;1.13;;;9.30;90.10;;;;;;5074828;28;20136;-62
2023/04/03 11:00:02;;;;;;;2.78;1.40;;;9.40;89.40;;;;;;5073909;28;20110;-61
2023/04/03 11:02:34;;;;;;;2.08;1.40;;;9.30;89.90;;;;;;5074154;28;20064;-62
2023/04/03 11:05:39;;;;;;;2.28;1.13;;;9.30;88.70;;;;;;5072486;28;20055;-62
2023/04/03 11:08:17;;;;;;;2.88;1.60;;;9.30;90.00;;;;;;5072816;28;20094;-61
2023/04/03 11:10:50;;;;;;;4.78;1.40;;;9.40;89.80;;;;;;5073484;28;20052;-61
2023/04/03 11:13:26;;;;;;;2.45;1.42;;;9.50;90.00;;;;;;5073523;28;20056;-62
2023/04/03 11:15:54;;;;;;;2.50;1.20;;;9.50;90.20;;;;;;5073684;28;20084;-61
2023/04/03 11:18:32;;;;;;;2.95;1.58;;;9.40;88.20;;;;;;5073439;28;20473;-61
2023/04/03 11:21:14;;;;;;;2.83;1.33;;;9.50;90.10;;;;;;5073645;28;20056;-61
2023/04/03 11:23:47;;;;;;;3.80;1.30;;;9.50;87.70;;;;;;5073291;28;20384;-61
2023/04/03 11:26:21;;;;;;;3.38;1.50;;;9.60;88.90;;;;;;5081080;28;20364;-63
2023/04/03 11:28:56;;;;;;;4.05;1.75;;;9.50;88.50;;;;;;5075603;28;20051;-62
2023/04/03 11:31:40;;;;;;;2.05;1.70;;;9.30;88.90;;;;;;5075697;28;20141;-62
2023/04/03 11:34:06;;;;;;;1.92;1.20;;;9.30;90.00;;;;;;5093075;28;20529;-61
2023/04/03 11:36:48;;;;;;;3.15;1.58;;;9.50;90.20;;;;;;5075365;28;20170;-61
2023/04/03 11:39:31;;;;;;;2.67;1.48;;;9.50;90.00;;;;;;5093193;28;20058;-62
2023/04/03 11:42:21;;;;;;;1.70;1.20;;;9.60;89.30;;;;;;5093528;28;20105;-62
2023/04/03 11:44:48;;;;;;;3.63;1.40;;;9.70;89.80;;;;;;5093068;28;20441;-62
2023/04/03 11:47:46;;;;;;;2.60;1.60;;;9.70;89.10;;;;;;5093157;28;20059;-62
2023/04/03 11:50:34;;;;;;;2.28;1.40;;;9.60;87.70;;;;;;5092992;28;20044;-62
2023/04/03 11:53:22;;;;;;;3.33;1.52;;;9.70;87.90;;;;;;5074896;28;20048;-62
2023/04/03 11:55:59;;;;;;;2.28;1.10;;;9.60;89.30;;;;;;5075050;28;20048;-62
2023/04/03 11:58:38;;;;;;;2.25;1.60;;;9.80;90.00;;;;;;5092731;28;20513;-61
2023/04/03 12:01:31;;;;;;;2.40;1.10;;;9.60;89.30;;;;;;5092210;28;20048;-62
2023/04/03 12:04:14;;;;;;;2.50;1.38;;;9.50;88.60;;;;;;5092513;28;20051;-61
2023/04/03 12:06:40;;;;;;;2.67;1.27;;;9.70;90.40;;;;;;5093127;28;20165;-61
2023/04/03 12:09:30;;;;;;;3.30;1.70;;;9.80;90.70;;;;;;5092475;28;20127;-62
2023/04/03 12:11:58;;;;;;;2.53;1.52;;;9.80;89.00;;;;;;5092776;28;20063;-62
2023/04/03 12:14:29;;;;;;;2.28;1.23;;;9.70;88.90;;;;;;5092550;28;20079;-61
2023/04/03 12:16:57;;;;;;;3.75;1.55;;;9.80;89.10;;;;;;5074563;28;20471;-63
2023/04/03 12:19:33;;;;;;;3.55;1.70;;;9.90;89.30;;;;;;5092354;28;20085;-62
2023/04/03 12:22:00;;;;;;;2.28;1.20;;;9.70;88.20;;;;;;5074593;28;20117;-62
2023/04/03 12:24:42;;;;;;;2.10;1.48;;;9.80;88.70;;;;;;5092319;28;20531;-61
2023/04/03 12:27:24;;;;;;;3.95;1.88;;;9.80;88.80;;;;;;5092203;28;20468;-62
2023/04/03 12:30:18;;;;;;;2.83;1.20;;;9.80;87.30;;;;;;5092221;28;20044;-63
2023/04/03 12:33:02;;;;;;;2.95;1.38;;;9.70;86.80;;;;;;5074380;28;20745;-63
2023/04/03 12:35:42;;;;;;;2.90;1.50;;;9.60;87.80;;;;;;5092308;28;20079;-63
2023/04/03 12:38:47;;;;;;;4.40;1.40;;;9.70;88.70;;;;;;5092804;28;20470;-62
2023/04/03 12:41:53;;;;;;;2.00;1.58;;;9.70;89.50;;;;;;5092514;28;20101;-62
2023/04/03 12:44:43;;;;;;;2.03;1.58;;;9.70;89.00;;;;;;5009957;28;20077;-63
2023/04/03 12:47:27;;;;;;;3.20;1.70;;;9.90;90.60;;;;;;5091539;28;20086;-63
2023/04/03 12:49:55;;;;;;;3.78;1.90;;;9.90;89.10;;;;;;5071512;28;20067;-63
2023/04/03 12:52:41;;;;;;;3.83;1.85;;;9.80;88.70;;;;;;5074607;28;20109;-63
2023/04/03 12:55:15;;;;;;;3.35;1.80;;;9.80;87.60;;;;;;5092422;28;20048;-62
2023/04/03 12:57:41;;;;;;;2.60;1.42;;;9.60;88.00;;;;;;5092325;28;20048;-62
2023/04/03 13:00:40;;;;;;;5.22;1.83;;;9.60;89.80;;;;;;5091820;28;20043;-62
2023/04/03 13:03:22;;;;;;;3.05;1.52;;;9.70;89.40;;;;;;5030379;28;20063;-62
2023/04/03 13:05:48;;;;;;;2.55;1.45;;;10.00;90.10;;;;;;5092048;28;20059;-62
2023/04/03 13:08:18;;;;;;;3.22;1.55;;;10.00;89.70;;;;;;5090991;28;20495;-62
2023/04/03 13:11:00;;;;;;;4.15;1.98;;;9.80;88.50;;;;;;5091918;28;20104;-64
2023/04/03 13:13:27;;;;;;;2.58;1.60;;;9.70;88.00;;;;;;5092235;28;20397;-63
2023/04/03 13:15:54;;;;;;;3.10;1.73;;;9.80;90.20;;;;;;5091647;28;20126;-64
2023/04/03 13:18:35;;;;;;;2.67;1.50;;;9.80;89.90;;;;;;5091774;28;20048;-63
2023/04/03 13:21:05;;;;;;;2.20;1.30;;;9.80;89.00;;;;;;5073965;28;20048;-62